sensor_id;sensor_type;location;lat;lon;timestamp;P1;durP1;ratioP1;P2;durP2;ratioP2
4597;SDS011;62772;48.646;8.906;2024-01-15T00:02:51;25.53;;;11.30;;
4597;SDS011;62772;48.646;8.906;2024-01-15T00:07:51;22.53;;;10.77;;
4597;SDS011;62772;48.646;8.906;2024-01-15T00:12:51;27.47;;;10.47;;
4597;SDS011;62772;48.646;8.906;2024-01-15T00:17:52;23.70;;;10.80;;
4597;SDS011;62772;48.646;8.906;2024-01-15T00:22:52;22.60;;;10.37;;
4597;SDS011;62772;48.646;8.906;2024-01-15T00:27:53;26.27;;;11.00;;
4597;SDS011;62772;48.646;8.906;2024-01-15T00:32:53;21.73;;;9.80;;
4597;SDS011;62772;48.646;8.906;2024-01-15T00:37:54;22.10;;;9.87;;
4597;SDS011;62772;48.646;8.906;2024-01-15T00:42:54;23.80;;;10.47;;
4597;SDS011;62772;48.646;8.906;2024-01-15T00:47:54;23.80;;;9.70;;
4597;SDS011;62772;48.646;8.906;2024-01-15T00:52:56;22.40;;;9.90;;
4597;SDS011;62772;48.646;8.906;2024-01-15T00:57:57;24.23;;;10.50;;
4597;SDS011;62772;48.646;8.906;2024-01-15T01:02:57;21.37;;;9.47;;
4597;SDS011;62772;48.646;8.906;2024-01-15T01:07:58;20.30;;;8.83;;
4597;SDS011;62772;48.646;8.906;2024-01-15T01:12:58;22.90;;;9.00;;
4597;SDS011;62772;48.646;8.906;2024-01-15T01:17:58;23.83;;;10.00;;
4597;SDS011;62772;48.646;8.906;2024-01-15T01:22:59;26.83;;;10.33;;
4597;SDS011;62772;48.646;8.906;2024-01-15T01:27:59;23.13;;;9.87;;
4597;SDS011;62772;48.646;8.906;2024-01-15T01:33:00;27.10;;;10.40;;
4597;SDS011;62772;48.646;8.906;2024-01-15T01:38:00;23.70;;;9.83;;
4597;SDS011;62772;48.646;8.906;2024-01-15T01:43:02;27.93;;;9.37;;
4597;SDS011;62772;48.646;8.906;2024-01-15T01:48:04;21.67;;;9.70;;
4597;SDS011;62772;48.646;8.906;2024-01-15T01:53:05;29.53;;;9.93;;
4597;SDS011;62772;48.646;8.906;2024-01-15T01:58:06;24.33;;;9.53;;
4597;SDS011;62772;48.646;8.906;2024-01-15T02:03:07;24.53;;;10.33;;
4597;SDS011;62772;48.646;8.906;2024-01-15T02:08:08;25.27;;;9.60;;
4597;SDS011;62772;48.646;8.906;2024-01-15T02:13:09;19.53;;;8.67;;
4597;SDS011;62772;48.646;8.906;2024-01-15T02:18:09;24.07;;;10.57;;
4597;SDS011;62772;48.646;8.906;2024-01-15T02:23:10;21.50;;;9.70;;
4597;SDS011;62772;48.646;8.906;2024-01-15T02:28:13;21.50;;;9.20;;
4597;SDS011;62772;48.646;8.906;2024-01-15T02:33:14;22.73;;;9.57;;
4597;SDS011;62772;48.646;8.906;2024-01-15T02:38:15;21.20;;;8.73;;
4597;SDS011;62772;48.646;8.906;2024-01-15T02:43:16;24.70;;;9.27;;
4597;SDS011;62772;48.646;8.906;2024-01-15T02:48:19;23.87;;;9.30;;
4597;SDS011;62772;48.646;8.906;2024-01-15T02:53:19;22.37;;;9.27;;
4597;SDS011;62772;48.646;8.906;2024-01-15T02:58:20;21.73;;;10.03;;
4597;SDS011;62772;48.646;8.906;2024-01-15T03:03:21;22.37;;;8.90;;
4597;SDS011;62772;48.646;8.906;2024-01-15T03:08:21;25.30;;;9.50;;
4597;SDS011;62772;48.646;8.906;2024-01-15T03:13:22;19.47;;;9.00;;
4597;SDS011;62772;48.646;8.906;2024-01-15T03:18:23;23.30;;;9.63;;
4597;SDS011;62772;48.646;8.906;2024-01-15T03:23:23;23.70;;;8.87;;
4597;SDS011;62772;48.646;8.906;2024-01-15T03:28:24;30.43;;;10.87;;
4597;SDS011;62772;48.646;8.906;2024-01-15T03:33:24;27.67;;;10.90;;
4597;SDS011;62772;48.646;8.906;2024-01-15T03:38:27;22.77;;;10.50;;
4597;SDS011;62772;48.646;8.906;2024-01-15T03:43:28;25.23;;;10.43;;
4597;SDS011;62772;48.646;8.906;2024-01-15T03:48:29;25.30;;;10.93;;
4597;SDS011;62772;48.646;8.906;2024-01-15T03:53:30;26.77;;;11.37;;
4597;SDS011;62772;48.646;8.906;2024-01-15T03:58:31;24.53;;;10.80;;
4597;SDS011;62772;48.646;8.906;2024-01-15T04:03:31;32.73;;;11.47;;
4597;SDS011;62772;48.646;8.906;2024-01-15T04:08:31;28.97;;;11.70;;
4597;SDS011;62772;48.646;8.906;2024-01-15T04:13:32;27.10;;;10.50;;
4597;SDS011;62772;48.646;8.906;2024-01-15T04:18:33;24.87;;;10.50;;
4597;SDS011;62772;48.646;8.906;2024-01-15T04:23:34;31.30;;;12.33;;
4597;SDS011;62772;48.646;8.906;2024-01-15T04:28:34;25.37;;;11.40;;
4597;SDS011;62772;48.646;8.906;2024-01-15T04:33:34;26.80;;;10.43;;
4597;SDS011;62772;48.646;8.906;2024-01-15T04:38:35;26.80;;;11.20;;
4597;SDS011;62772;48.646;8.906;2024-01-15T04:43:36;28.80;;;11.83;;
4597;SDS011;62772;48.646;8.906;2024-01-15T04:48:36;26.83;;;11.77;;
4597;SDS011;62772;48.646;8.906;2024-01-15T04:53:37;25.37;;;11.20;;
4597;SDS011;62772;48.646;8.906;2024-01-15T04:58:37;24.97;;;11.07;;
4597;SDS011;62772;48.646;8.906;2024-01-15T05:03:38;28.30;;;11.70;;
4597;SDS011;62772;48.646;8.906;2024-01-15T05:08:39;30.47;;;11.53;;
4597;SDS011;62772;48.646;8.906;2024-01-15T05:13:39;31.73;;;12.60;;
4597;SDS011;62772;48.646;8.906;2024-01-15T05:18:40;29.87;;;12.83;;
4597;SDS011;62772;48.646;8.906;2024-01-15T05:23:41;25.10;;;10.87;;
4597;SDS011;62772;48.646;8.906;2024-01-15T05:28:41;26.33;;;11.73;;
4597;SDS011;62772;48.646;8.906;2024-01-15T05:33:42;25.40;;;11.07;;
4597;SDS011;62772;48.646;8.906;2024-01-15T05:38:43;27.23;;;11.30;;
4597;SDS011;62772;48.646;8.906;2024-01-15T05:43:43;25.93;;;12.03;;
4597;SDS011;62772;48.646;8.906;2024-01-15T05:48:44;29.60;;;10.83;;
4597;SDS011;62772;48.646;8.906;2024-01-15T05:53:44;20.60;;;10.13;;
4597;SDS011;62772;48.646;8.906;2024-01-15T05:58:44;22.83;;;10.60;;
4597;SDS011;62772;48.646;8.906;2024-01-15T06:03:45;16.33;;;9.27;;
4597;SDS011;62772;48.646;8.906;2024-01-15T06:08:46;21.30;;;9.63;;
4597;SDS011;62772;48.646;8.906;2024-01-15T06:13:46;19.60;;;9.00;;
4597;SDS011;62772;48.646;8.906;2024-01-15T06:18:47;25.50;;;10.20;;
4597;SDS011;62772;48.646;8.906;2024-01-15T06:23:47;20.80;;;10.03;;
4597;SDS011;62772;48.646;8.906;2024-01-15T06:28:47;31.67;;;16.00;;
4597;SDS011;62772;48.646;8.906;2024-01-15T06:33:48;29.00;;;13.70;;
4597;SDS011;62772;48.646;8.906;2024-01-15T06:38:49;30.13;;;12.30;;
4597;SDS011;62772;48.646;8.906;2024-01-15T06:43:49;27.30;;;11.97;;
4597;SDS011;62772;48.646;8.906;2024-01-15T06:48:49;28.93;;;14.00;;
4597;SDS011;62772;48.646;8.906;2024-01-15T06:53:50;28.00;;;14.00;;
4597;SDS011;62772;48.646;8.906;2024-01-15T06:58:51;25.53;;;12.80;;
4597;SDS011;62772;48.646;8.906;2024-01-15T07:03:51;29.37;;;12.50;;
4597;SDS011;62772;48.646;8.906;2024-01-15T07:08:52;27.87;;;12.67;;
4597;SDS011;62772;48.646;8.906;2024-01-15T07:13:52;32.23;;;14.03;;
4597;SDS011;62772;48.646;8.906;2024-01-15T07:18:52;27.30;;;11.97;;
4597;SDS011;62772;48.646;8.906;2024-01-15T07:23:53;28.27;;;12.83;;
4597;SDS011;62772;48.646;8.906;2024-01-15T07:28:53;26.00;;;12.47;;
4597;SDS011;62772;48.646;8.906;2024-01-15T07:33:54;27.93;;;12.73;;
4597;SDS011;62772;48.646;8.906;2024-01-15T07:38:54;22.10;;;11.30;;
4597;SDS011;62772;48.646;8.906;2024-01-15T07:43:55;27.97;;;12.37;;
4597;SDS011;62772;48.646;8.906;2024-01-15T07:48:55;23.43;;;10.83;;
4597;SDS011;62772;48.646;8.906;2024-01-15T07:53:58;21.80;;;10.83;;
4597;SDS011;62772;48.646;8.906;2024-01-15T07:58:59;19.57;;;8.67;;
4597;SDS011;62772;48.646;8.906;2024-01-15T08:03:59;17.43;;;8.33;;
4597;SDS011;62772;48.646;8.906;2024-01-15T08:09:00;16.67;;;8.77;;
4597;SDS011;62772;48.646;8.906;2024-01-15T08:14:00;17.33;;;8.70;;
4597;SDS011;62772;48.646;8.906;2024-01-15T08:19:01;18.53;;;9.37;;
4597;SDS011;62772;48.646;8.906;2024-01-15T08:24:02;14.43;;;7.73;;
4597;SDS011;62772;48.646;8.906;2024-01-15T08:29:03;14.27;;;7.30;;
4597;SDS011;62772;48.646;8.906;2024-01-15T08:34:03;16.60;;;7.80;;
4597;SDS011;62772;48.646;8.906;2024-01-15T08:39:05;18.53;;;7.50;;
4597;SDS011;62772;48.646;8.906;2024-01-15T08:44:05;14.13;;;7.57;;
4597;SDS011;62772;48.646;8.906;2024-01-15T08:49:05;16.60;;;7.07;;
4597;SDS011;62772;48.646;8.906;2024-01-15T08:54:06;18.80;;;7.73;;
4597;SDS011;62772;48.646;8.906;2024-01-15T08:59:08;15.40;;;6.70;;
4597;SDS011;62772;48.646;8.906;2024-01-15T09:04:09;12.30;;;6.90;;
4597;SDS011;62772;48.646;8.906;2024-01-15T09:09:09;13.83;;;7.10;;
4597;SDS011;62772;48.646;8.906;2024-01-15T09:14:10;16.30;;;7.47;;
4597;SDS011;62772;48.646;8.906;2024-01-15T09:19:10;11.63;;;6.87;;
4597;SDS011;62772;48.646;8.906;2024-01-15T09:24:11;14.63;;;7.93;;
4597;SDS011;62772;48.646;8.906;2024-01-15T09:29:11;11.53;;;7.10;;
4597;SDS011;62772;48.646;8.906;2024-01-15T09:34:12;22.73;;;10.47;;
4597;SDS011;62772;48.646;8.906;2024-01-15T09:39:12;15.97;;;7.80;;
4597;SDS011;62772;48.646;8.906;2024-01-15T09:44:13;15.37;;;7.27;;
4597;SDS011;62772;48.646;8.906;2024-01-15T09:49:14;14.33;;;7.77;;
4597;SDS011;62772;48.646;8.906;2024-01-15T09:54:15;14.90;;;7.83;;
4597;SDS011;62772;48.646;8.906;2024-01-15T09:59:17;14.93;;;7.43;;
4597;SDS011;62772;48.646;8.906;2024-01-15T10:04:18;13.83;;;6.97;;
4597;SDS011;62772;48.646;8.906;2024-01-15T10:09:19;15.70;;;6.73;;
4597;SDS011;62772;48.646;8.906;2024-01-15T10:14:20;13.47;;;6.40;;
4597;SDS011;62772;48.646;8.906;2024-01-15T10:19:20;18.03;;;7.07;;
4597;SDS011;62772;48.646;8.906;2024-01-15T10:24:20;15.40;;;6.83;;
4597;SDS011;62772;48.646;8.906;2024-01-15T10:29:21;12.50;;;6.27;;
4597;SDS011;62772;48.646;8.906;2024-01-15T10:34:21;12.97;;;6.90;;
4597;SDS011;62772;48.646;8.906;2024-01-15T10:39:22;18.07;;;7.90;;
4597;SDS011;62772;48.646;8.906;2024-01-15T10:44:23;18.03;;;8.80;;
4597;SDS011;62772;48.646;8.906;2024-01-15T10:49:24;16.97;;;7.70;;
4597;SDS011;62772;48.646;8.906;2024-01-15T10:54:26;20.03;;;7.90;;
4597;SDS011;62772;48.646;8.906;2024-01-15T10:59:27;16.27;;;8.63;;
4597;SDS011;62772;48.646;8.906;2024-01-15T11:04:29;16.17;;;8.20;;
4597;SDS011;62772;48.646;8.906;2024-01-15T11:09:32;14.70;;;8.17;;
4597;SDS011;62772;48.646;8.906;2024-01-15T11:14:42;10.97;;;6.60;;
4597;SDS011;62772;48.646;8.906;2024-01-15T11:19:47;16.53;;;7.47;;
4597;SDS011;62772;48.646;8.906;2024-01-15T11:24:52;15.63;;;8.10;;
4597;SDS011;62772;48.646;8.906;2024-01-15T11:30:02;14.77;;;7.40;;
4597;SDS011;62772;48.646;8.906;2024-01-15T11:35:04;16.20;;;7.70;;
4597;SDS011;62772;48.646;8.906;2024-01-15T11:40:06;14.60;;;7.87;;
4597;SDS011;62772;48.646;8.906;2024-01-15T11:45:11;13.57;;;7.77;;
4597;SDS011;62772;48.646;8.906;2024-01-15T11:50:12;17.90;;;8.57;;
4597;SDS011;62772;48.646;8.906;2024-01-15T12:00:39;17.67;;;9.00;;
4597;SDS011;62772;48.646;8.906;2024-01-15T12:05:42;19.00;;;9.80;;
4597;SDS011;62772;48.646;8.906;2024-01-15T12:10:43;15.70;;;7.80;;
4597;SDS011;62772;48.646;8.906;2024-01-15T12:15:44;15.97;;;8.43;;
4597;SDS011;62772;48.646;8.906;2024-01-15T12:20:46;16.07;;;8.90;;
4597;SDS011;62772;48.646;8.906;2024-01-15T12:25:47;16.77;;;8.70;;
4597;SDS011;62772;48.646;8.906;2024-01-15T12:30:47;18.17;;;8.13;;
4597;SDS011;62772;48.646;8.906;2024-01-15T12:35:54;21.07;;;10.43;;
4597;SDS011;62772;48.646;8.906;2024-01-15T12:40:54;16.20;;;9.27;;
4597;SDS011;62772;48.646;8.906;2024-01-15T12:45:54;16.90;;;7.23;;
4597;SDS011;62772;48.646;8.906;2024-01-15T12:50:55;18.43;;;9.23;;
4597;SDS011;62772;48.646;8.906;2024-01-15T12:55:57;20.23;;;9.20;;
4597;SDS011;62772;48.646;8.906;2024-01-15T13:00:57;18.70;;;9.53;;
4597;SDS011;62772;48.646;8.906;2024-01-15T13:05:58;12.90;;;8.30;;
4597;SDS011;62772;48.646;8.906;2024-01-15T13:10:58;15.53;;;8.07;;
4597;SDS011;62772;48.646;8.906;2024-01-15T13:15:59;14.57;;;7.80;;
4597;SDS011;62772;48.646;8.906;2024-01-15T13:21:00;15.07;;;6.47;;
4597;SDS011;62772;48.646;8.906;2024-01-15T13:26:02;24.30;;;10.87;;
4597;SDS011;62772;48.646;8.906;2024-01-15T13:31:03;17.30;;;9.40;;
4597;SDS011;62772;48.646;8.906;2024-01-15T13:36:04;8.90;;;5.93;;
4597;SDS011;62772;48.646;8.906;2024-01-15T13:41:08;10.80;;;6.30;;
4597;SDS011;62772;48.646;8.906;2024-01-15T13:46:08;10.63;;;6.70;;
4597;SDS011;62772;48.646;8.906;2024-01-15T13:51:10;11.20;;;7.00;;
4597;SDS011;62772;48.646;8.906;2024-01-15T13:56:11;13.50;;;8.10;;
4597;SDS011;62772;48.646;8.906;2024-01-15T14:01:12;13.50;;;7.83;;
4597;SDS011;62772;48.646;8.906;2024-01-15T14:06:13;10.93;;;6.80;;
4597;SDS011;62772;48.646;8.906;2024-01-15T14:11:13;9.80;;;5.97;;
4597;SDS011;62772;48.646;8.906;2024-01-15T14:16:14;9.93;;;6.10;;
4597;SDS011;62772;48.646;8.906;2024-01-15T14:21:14;11.67;;;6.13;;
4597;SDS011;62772;48.646;8.906;2024-01-15T14:26:15;11.07;;;6.77;;
4597;SDS011;62772;48.646;8.906;2024-01-15T14:31:15;12.30;;;5.60;;
4597;SDS011;62772;48.646;8.906;2024-01-15T14:36:16;8.20;;;4.47;;
4597;SDS011;62772;48.646;8.906;2024-01-15T14:41:16;4.47;;;3.10;;
4597;SDS011;62772;48.646;8.906;2024-01-15T14:46:17;6.70;;;3.50;;
4597;SDS011;62772;48.646;8.906;2024-01-15T14:51:17;7.07;;;3.67;;
4597;SDS011;62772;48.646;8.906;2024-01-15T14:56:18;7.37;;;4.20;;
4597;SDS011;62772;48.646;8.906;2024-01-15T15:01:18;6.13;;;4.60;;
4597;SDS011;62772;48.646;8.906;2024-01-15T15:06:19;8.33;;;4.90;;
4597;SDS011;62772;48.646;8.906;2024-01-15T15:11:21;8.07;;;4.60;;
4597;SDS011;62772;48.646;8.906;2024-01-15T15:16:23;11.40;;;7.30;;
4597;SDS011;62772;48.646;8.906;2024-01-15T15:21:23;13.27;;;7.00;;
4597;SDS011;62772;48.646;8.906;2024-01-15T15:26:24;11.43;;;6.93;;
4597;SDS011;62772;48.646;8.906;2024-01-15T15:31:24;11.10;;;6.27;;
4597;SDS011;62772;48.646;8.906;2024-01-15T15:36:24;9.97;;;6.10;;
4597;SDS011;62772;48.646;8.906;2024-01-15T15:41:25;8.50;;;5.60;;
4597;SDS011;62772;48.646;8.906;2024-01-15T15:46:26;10.47;;;6.50;;
4597;SDS011;62772;48.646;8.906;2024-01-15T15:51:26;13.60;;;6.20;;
4597;SDS011;62772;48.646;8.906;2024-01-15T15:56:27;10.10;;;6.33;;
4597;SDS011;62772;48.646;8.906;2024-01-15T16:01:27;12.07;;;6.43;;
4597;SDS011;62772;48.646;8.906;2024-01-15T16:06:28;10.10;;;5.93;;
4597;SDS011;62772;48.646;8.906;2024-01-15T16:11:28;14.20;;;6.80;;
4597;SDS011;62772;48.646;8.906;2024-01-15T16:16:29;12.20;;;5.93;;
4597;SDS011;62772;48.646;8.906;2024-01-15T16:21:29;9.93;;;5.87;;
4597;SDS011;62772;48.646;8.906;2024-01-15T16:26:29;10.37;;;5.90;;
4597;SDS011;62772;48.646;8.906;2024-01-15T16:31:30;9.43;;;6.07;;
4597;SDS011;62772;48.646;8.906;2024-01-15T16:36:31;12.63;;;6.47;;
4597;SDS011;62772;48.646;8.906;2024-01-15T16:41:32;11.67;;;6.53;;
4597;SDS011;62772;48.646;8.906;2024-01-15T16:46:33;11.00;;;6.30;;
4597;SDS011;62772;48.646;8.906;2024-01-15T16:51:33;13.43;;;7.20;;
4597;SDS011;62772;48.646;8.906;2024-01-15T16:56:34;10.77;;;6.33;;
4597;SDS011;62772;48.646;8.906;2024-01-15T17:01:34;12.77;;;7.10;;
4597;SDS011;62772;48.646;8.906;2024-01-15T17:06:34;12.10;;;6.60;;
4597;SDS011;62772;48.646;8.906;2024-01-15T17:11:35;12.70;;;7.00;;
4597;SDS011;62772;48.646;8.906;2024-01-15T17:16:36;12.87;;;7.20;;
4597;SDS011;62772;48.646;8.906;2024-01-15T17:21:36;14.27;;;8.37;;
4597;SDS011;62772;48.646;8.906;2024-01-15T17:26:37;11.90;;;6.90;;
4597;SDS011;62772;48.646;8.906;2024-01-15T17:31:37;20.10;;;7.83;;
4597;SDS011;62772;48.646;8.906;2024-01-15T17:36:38;13.47;;;7.30;;
4597;SDS011;62772;48.646;8.906;2024-01-15T17:41:39;13.50;;;7.07;;
4597;SDS011;62772;48.646;8.906;2024-01-15T17:46:39;15.00;;;7.30;;
4597;SDS011;62772;48.646;8.906;2024-01-15T17:51:40;13.23;;;7.50;;
4597;SDS011;62772;48.646;8.906;2024-01-15T17:56:41;16.30;;;8.67;;
4597;SDS011;62772;48.646;8.906;2024-01-15T18:01:41;12.93;;;7.67;;
4597;SDS011;62772;48.646;8.906;2024-01-15T18:06:43;20.67;;;9.10;;
4597;SDS011;62772;48.646;8.906;2024-01-15T18:11:44;19.97;;;9.73;;
4597;SDS011;62772;48.646;8.906;2024-01-15T18:16:44;17.93;;;9.93;;
4597;SDS011;62772;48.646;8.906;2024-01-15T18:21:48;12.63;;;6.97;;
4597;SDS011;62772;48.646;8.906;2024-01-15T18:26:50;14.87;;;8.73;;
4597;SDS011;62772;48.646;8.906;2024-01-15T18:31:52;15.63;;;8.23;;
4597;SDS011;62772;48.646;8.906;2024-01-15T18:36:52;13.10;;;7.30;;
4597;SDS011;62772;48.646;8.906;2024-01-15T18:41:54;21.33;;;11.50;;
4597;SDS011;62772;48.646;8.906;2024-01-15T18:46:55;22.23;;;12.40;;
4597;SDS011;62772;48.646;8.906;2024-01-15T18:51:55;19.20;;;10.90;;
4597;SDS011;62772;48.646;8.906;2024-01-15T18:56:57;21.53;;;11.30;;
4597;SDS011;62772;48.646;8.906;2024-01-15T19:01:58;20.03;;;11.63;;
4597;SDS011;62772;48.646;8.906;2024-01-15T19:06:58;16.20;;;9.73;;
4597;SDS011;62772;48.646;8.906;2024-01-15T19:11:59;21.80;;;10.10;;
4597;SDS011;62772;48.646;8.906;2024-01-15T19:16:59;23.13;;;12.20;;
4597;SDS011;62772;48.646;8.906;2024-01-15T19:22:01;15.73;;;9.27;;
4597;SDS011;62772;48.646;8.906;2024-01-15T19:27:03;14.70;;;8.70;;
4597;SDS011;62772;48.646;8.906;2024-01-15T19:32:03;14.30;;;8.50;;
4597;SDS011;62772;48.646;8.906;2024-01-15T19:37:04;27.03;;;12.70;;
4597;SDS011;62772;48.646;8.906;2024-01-15T19:42:04;19.63;;;10.97;;
4597;SDS011;62772;48.646;8.906;2024-01-15T19:47:05;17.10;;;9.57;;
4597;SDS011;62772;48.646;8.906;2024-01-15T19:52:06;17.37;;;8.97;;
4597;SDS011;62772;48.646;8.906;2024-01-15T19:57:06;16.87;;;8.97;;
4597;SDS011;62772;48.646;8.906;2024-01-15T20:02:06;14.13;;;8.60;;
4597;SDS011;62772;48.646;8.906;2024-01-15T20:07:07;16.80;;;8.97;;
4597;SDS011;62772;48.646;8.906;2024-01-15T20:12:08;15.50;;;8.80;;
4597;SDS011;62772;48.646;8.906;2024-01-15T20:17:09;20.80;;;10.37;;
4597;SDS011;62772;48.646;8.906;2024-01-15T20:22:09;22.47;;;10.40;;
4597;SDS011;62772;48.646;8.906;2024-01-15T20:27:10;20.10;;;10.60;;
4597;SDS011;62772;48.646;8.906;2024-01-15T20:32:10;18.03;;;9.00;;
4597;SDS011;62772;48.646;8.906;2024-01-15T20:37:12;17.70;;;9.23;;
4597;SDS011;62772;48.646;8.906;2024-01-15T20:42:12;18.10;;;9.00;;
4597;SDS011;62772;48.646;8.906;2024-01-15T20:47:13;14.47;;;8.30;;
4597;SDS011;62772;48.646;8.906;2024-01-15T20:52:14;14.47;;;9.10;;
4597;SDS011;62772;48.646;8.906;2024-01-15T20:57:15;18.40;;;9.70;;
4597;SDS011;62772;48.646;8.906;2024-01-15T21:02:15;18.53;;;10.30;;
4597;SDS011;62772;48.646;8.906;2024-01-15T21:07:18;17.67;;;10.17;;
4597;SDS011;62772;48.646;8.906;2024-01-15T21:12:19;24.17;;;12.93;;
4597;SDS011;62772;48.646;8.906;2024-01-15T21:17:19;16.63;;;9.27;;
4597;SDS011;62772;48.646;8.906;2024-01-15T21:22:20;17.40;;;10.07;;
4597;SDS011;62772;48.646;8.906;2024-01-15T21:27:20;19.63;;;9.00;;
4597;SDS011;62772;48.646;8.906;2024-01-15T21:32:21;14.03;;;8.07;;
4597;SDS011;62772;48.646;8.906;2024-01-15T21:37:22;16.17;;;9.13;;
4597;SDS011;62772;48.646;8.906;2024-01-15T21:42:23;15.20;;;8.27;;
4597;SDS011;62772;48.646;8.906;2024-01-15T21:47:23;16.17;;;8.60;;
4597;SDS011;62772;48.646;8.906;2024-01-15T21:52:26;16.00;;;9.47;;
4597;SDS011;62772;48.646;8.906;2024-01-15T21:57:26;15.07;;;8.10;;
4597;SDS011;62772;48.646;8.906;2024-01-15T22:02:27;15.10;;;8.23;;
4597;SDS011;62772;48.646;8.906;2024-01-15T22:07:29;16.17;;;8.23;;
4597;SDS011;62772;48.646;8.906;2024-01-15T22:12:30;18.80;;;9.07;;
4597;SDS011;62772;48.646;8.906;2024-01-15T22:17:30;15.90;;;8.10;;
4597;SDS011;62772;48.646;8.906;2024-01-15T22:22:31;13.07;;;7.20;;
4597;SDS011;62772;48.646;8.906;2024-01-15T22:27:33;15.63;;;9.07;;
4597;SDS011;62772;48.646;8.906;2024-01-15T22:32:34;16.10;;;8.37;;
4597;SDS011;62772;48.646;8.906;2024-01-15T22:37:34;14.30;;;7.80;;
4597;SDS011;62772;48.646;8.906;2024-01-15T22:42:35;16.57;;;8.50;;
4597;SDS011;62772;48.646;8.906;2024-01-15T22:47:36;17.77;;;9.63;;
4597;SDS011;62772;48.646;8.906;2024-01-15T22:52:37;19.13;;;9.67;;
4597;SDS011;62772;48.646;8.906;2024-01-15T22:57:39;15.73;;;8.17;;
4597;SDS011;62772;48.646;8.906;2024-01-15T23:02:39;14.40;;;8.03;;
4597;SDS011;62772;48.646;8.906;2024-01-15T23:07:39;13.63;;;8.03;;
4597;SDS011;62772;48.646;8.906;2024-01-15T23:12:40;15.00;;;8.50;;
4597;SDS011;62772;48.646;8.906;2024-01-15T23:17:41;13.10;;;7.40;;
4597;SDS011;62772;48.646;8.906;2024-01-15T23:22:43;12.27;;;7.60;;
4597;SDS011;62772;48.646;8.906;2024-01-15T23:27:44;12.47;;;7.10;;
4597;SDS011;62772;48.646;8.906;2024-01-15T23:32:45;18.10;;;7.50;;
4597;SDS011;62772;48.646;8.906;2024-01-15T23:37:46;12.93;;;7.13;;
4597;SDS011;62772;48.646;8.906;2024-01-15T23:42:47;15.50;;;7.17;;
4597;SDS011;62772;48.646;8.906;2024-01-15T23:47:47;11.80;;;6.90;;
4597;SDS011;62772;48.646;8.906;2024-01-15T23:52:48;12.40;;;7.33;;
4597;SDS011;62772;48.646;8.906;2024-01-15T23:57:48;13.57;;;7.50;;
